sensor_id;sensor_type;location;lat;lon;timestamp;P1;durP1;ratioP1;P2;durP2;ratioP2
12359;SDS011;6244;51.460;7.090;2023-03-05T00:03:03;9.82;;;4.82;;
12359;SDS011;6244;51.460;7.090;2023-03-05T00:08:00;8.60;;;3.90;;
12359;SDS011;6244;51.460;7.090;2023-03-05T00:12:56;6.50;;;3.40;;
12359;SDS011;6244;51.460;7.090;2023-03-05T00:17:54;9.45;;;4.35;;
12359;SDS011;6244;51.460;7.090;2023-03-05T00:22:51;8.63;;;3.45;;
12359;SDS011;6244;51.460;7.090;2023-03-05T00:27:47;6.70;;;3.50;;
12359;SDS011;6244;51.460;7.090;2023-03-05T00:32:44;9.00;;;4.03;;
12359;SDS011;6244;51.460;7.090;2023-03-05T00:37:41;8.00;;;3.85;;
12359;SDS011;6244;51.460;7.090;2023-03-05T00:42:38;10.35;;;3.10;;
12359;SDS011;6244;51.460;7.090;2023-03-05T00:47:34;7.07;;;2.95;;
12359;SDS011;6244;51.460;7.090;2023-03-05T00:52:31;6.65;;;3.10;;
12359;SDS011;6244;51.460;7.090;2023-03-05T00:57:29;4.90;;;3.15;;
12359;SDS011;6244;51.460;7.090;2023-03-05T01:02:25;7.80;;;3.45;;
12359;SDS011;6244;51.460;7.090;2023-03-05T01:07:22;7.43;;;3.33;;
12359;SDS011;6244;51.460;7.090;2023-03-05T01:12:18;8.00;;;3.03;;
12359;SDS011;6244;51.460;7.090;2023-03-05T01:17:16;9.00;;;4.30;;
12359;SDS011;6244;51.460;7.090;2023-03-05T01:22:13;7.60;;;3.72;;
12359;SDS011;6244;51.460;7.090;2023-03-05T01:27:09;9.82;;;3.80;;
12359;SDS011;6244;51.460;7.090;2023-03-05T01:32:06;9.63;;;3.70;;
12359;SDS011;6244;51.460;7.090;2023-03-05T01:37:04;8.88;;;3.30;;
12359;SDS011;6244;51.460;7.090;2023-03-05T01:42:00;6.20;;;3.00;;
12359;SDS011;6244;51.460;7.090;2023-03-05T01:46:57;5.40;;;3.20;;
12359;SDS011;6244;51.460;7.090;2023-03-05T01:51:56;5.43;;;3.25;;
12359;SDS011;6244;51.460;7.090;2023-03-05T01:56:59;6.22;;;2.63;;
12359;SDS011;6244;51.460;7.090;2023-03-05T02:02:03;5.47;;;3.17;;
12359;SDS011;6244;51.460;7.090;2023-03-05T02:07:02;10.10;;;2.78;;
12359;SDS011;6244;51.460;7.090;2023-03-05T02:12:00;6.93;;;2.40;;
12359;SDS011;6244;51.460;7.090;2023-03-05T02:16:56;3.63;;;2.40;;
12359;SDS011;6244;51.460;7.090;2023-03-05T02:21:54;5.65;;;2.42;;
12359;SDS011;6244;51.460;7.090;2023-03-05T02:26:51;4.43;;;2.30;;
12359;SDS011;6244;51.460;7.090;2023-03-05T02:31:47;5.65;;;2.30;;
12359;SDS011;6244;51.460;7.090;2023-03-05T02:36:44;6.35;;;2.33;;
12359;SDS011;6244;51.460;7.090;2023-03-05T02:41:42;7.65;;;3.67;;
12359;SDS011;6244;51.460;7.090;2023-03-05T02:46:38;5.53;;;3.17;;
12359;SDS011;6244;51.460;7.090;2023-03-05T02:51:35;5.88;;;3.67;;
12359;SDS011;6244;51.460;7.090;2023-03-05T02:56:31;7.20;;;3.05;;
12359;SDS011;6244;51.460;7.090;2023-03-05T03:01:29;7.28;;;4.00;;
12359;SDS011;6244;51.460;7.090;2023-03-05T03:06:26;9.88;;;4.15;;
12359;SDS011;6244;51.460;7.090;2023-03-05T03:11:22;5.55;;;3.00;;
12359;SDS011;6244;51.460;7.090;2023-03-05T03:16:19;7.57;;;3.33;;
12359;SDS011;6244;51.460;7.090;2023-03-05T03:21:17;6.93;;;2.60;;
12359;SDS011;6244;51.460;7.090;2023-03-05T03:26:15;7.25;;;3.03;;
12359;SDS011;6244;51.460;7.090;2023-03-05T03:31:12;6.82;;;3.45;;
12359;SDS011;6244;51.460;7.090;2023-03-05T03:36:09;6.88;;;3.45;;
12359;SDS011;6244;51.460;7.090;2023-03-05T03:41:07;6.90;;;3.08;;
12359;SDS011;6244;51.460;7.090;2023-03-05T03:46:04;9.95;;;3.30;;
12359;SDS011;6244;51.460;7.090;2023-03-05T03:51:03;5.47;;;3.40;;
12359;SDS011;6244;51.460;7.090;2023-03-05T03:56:01;7.70;;;3.80;;
12359;SDS011;6244;51.460;7.090;2023-03-05T04:00:59;5.82;;;3.55;;
12359;SDS011;6244;51.460;7.090;2023-03-05T04:05:56;11.02;;;4.10;;
12359;SDS011;6244;51.460;7.090;2023-03-05T04:10:52;6.07;;;3.50;;
12359;SDS011;6244;51.460;7.090;2023-03-05T04:15:49;8.15;;;4.07;;
12359;SDS011;6244;51.460;7.090;2023-03-05T04:20:47;7.03;;;3.55;;
12359;SDS011;6244;51.460;7.090;2023-03-05T04:25:44;8.60;;;4.18;;
12359;SDS011;6244;51.460;7.090;2023-03-05T04:30:40;6.38;;;3.92;;
12359;SDS011;6244;51.460;7.090;2023-03-05T04:35:37;8.52;;;3.85;;
12359;SDS011;6244;51.460;7.090;2023-03-05T04:40:35;7.68;;;4.07;;
12359;SDS011;6244;51.460;7.090;2023-03-05T04:45:32;15.48;;;7.38;;
12359;SDS011;6244;51.460;7.090;2023-03-05T04:50:29;12.70;;;7.00;;
12359;SDS011;6244;51.460;7.090;2023-03-05T04:55:25;13.65;;;6.50;;
12359;SDS011;6244;51.460;7.090;2023-03-05T05:00:23;15.00;;;8.48;;
12359;SDS011;6244;51.460;7.090;2023-03-05T05:05:21;8.68;;;5.60;;
12359;SDS011;6244;51.460;7.090;2023-03-05T05:10:19;13.90;;;7.35;;
12359;SDS011;6244;51.460;7.090;2023-03-05T05:15:15;16.58;;;7.82;;
12359;SDS011;6244;51.460;7.090;2023-03-05T05:20:14;18.02;;;8.85;;
12359;SDS011;6244;51.460;7.090;2023-03-05T05:25:11;18.45;;;8.27;;
12359;SDS011;6244;51.460;7.090;2023-03-05T05:30:08;15.13;;;6.95;;
12359;SDS011;6244;51.460;7.090;2023-03-05T05:35:06;17.38;;;7.80;;
12359;SDS011;6244;51.460;7.090;2023-03-05T05:40:04;15.52;;;7.22;;
12359;SDS011;6244;51.460;7.090;2023-03-05T05:45:02;14.35;;;5.88;;
12359;SDS011;6244;51.460;7.090;2023-03-05T05:49:59;15.95;;;5.57;;
12359;SDS011;6244;51.460;7.090;2023-03-05T05:54:56;11.57;;;6.65;;
12359;SDS011;6244;51.460;7.090;2023-03-05T05:59:54;12.30;;;6.20;;
12359;SDS011;6244;51.460;7.090;2023-03-05T06:04:51;10.27;;;5.20;;
12359;SDS011;6244;51.460;7.090;2023-03-05T06:09:47;10.80;;;4.95;;
12359;SDS011;6244;51.460;7.090;2023-03-05T06:14:44;9.27;;;5.05;;
12359;SDS011;6244;51.460;7.090;2023-03-05T06:19:41;8.02;;;4.53;;
12359;SDS011;6244;51.460;7.090;2023-03-05T06:24:38;14.00;;;5.68;;
12359;SDS011;6244;51.460;7.090;2023-03-05T06:29:34;9.60;;;4.60;;
12359;SDS011;6244;51.460;7.090;2023-03-05T06:34:31;10.40;;;3.92;;
12359;SDS011;6244;51.460;7.090;2023-03-05T06:39:29;10.10;;;4.82;;
12359;SDS011;6244;51.460;7.090;2023-03-05T06:44:26;7.07;;;4.50;;
12359;SDS011;6244;51.460;7.090;2023-03-05T06:49:23;6.50;;;3.22;;
12359;SDS011;6244;51.460;7.090;2023-03-05T06:54:19;11.30;;;5.10;;
12359;SDS011;6244;51.460;7.090;2023-03-05T06:59:17;11.10;;;4.03;;
12359;SDS011;6244;51.460;7.090;2023-03-05T07:04:15;4.40;;;3.22;;
12359;SDS011;6244;51.460;7.090;2023-03-05T07:09:12;7.53;;;4.40;;
12359;SDS011;6244;51.460;7.090;2023-03-05T07:14:10;12.05;;;5.75;;
12359;SDS011;6244;51.460;7.090;2023-03-05T07:19:09;9.75;;;5.00;;
12359;SDS011;6244;51.460;7.090;2023-03-05T07:24:06;19.58;;;5.68;;
12359;SDS011;6244;51.460;7.090;2023-03-05T07:29:03;10.10;;;4.75;;
12359;SDS011;6244;51.460;7.090;2023-03-05T07:34:00;8.57;;;4.75;;
12359;SDS011;6244;51.460;7.090;2023-03-05T07:38:59;14.82;;;7.05;;
12359;SDS011;6244;51.460;7.090;2023-03-05T07:43:56;14.25;;;7.38;;
12359;SDS011;6244;51.460;7.090;2023-03-05T07:48:53;17.55;;;7.35;;
12359;SDS011;6244;51.460;7.090;2023-03-05T07:53:50;15.55;;;8.10;;
12359;SDS011;6244;51.460;7.090;2023-03-05T07:58:49;22.52;;;7.65;;
12359;SDS011;6244;51.460;7.090;2023-03-05T08:03:46;13.93;;;8.07;;
12359;SDS011;6244;51.460;7.090;2023-03-05T08:08:42;14.90;;;9.10;;
12359;SDS011;6244;51.460;7.090;2023-03-05T08:13:39;16.27;;;10.40;;
12359;SDS011;6244;51.460;7.090;2023-03-05T08:18:37;18.63;;;10.48;;
12359;SDS011;6244;51.460;7.090;2023-03-05T08:23:34;16.83;;;9.07;;
12359;SDS011;6244;51.460;7.090;2023-03-05T08:28:30;17.70;;;9.07;;
12359;SDS011;6244;51.460;7.090;2023-03-05T08:33:27;16.08;;;9.02;;
12359;SDS011;6244;51.460;7.090;2023-03-05T08:38:25;20.02;;;9.32;;
12359;SDS011;6244;51.460;7.090;2023-03-05T08:43:21;18.42;;;11.65;;
12359;SDS011;6244;51.460;7.090;2023-03-05T08:48:18;25.85;;;14.32;;
12359;SDS011;6244;51.460;7.090;2023-03-05T08:53:15;20.73;;;13.07;;
12359;SDS011;6244;51.460;7.090;2023-03-05T08:58:13;22.55;;;13.60;;
12359;SDS011;6244;51.460;7.090;2023-03-05T09:03:09;25.85;;;14.30;;
12359;SDS011;6244;51.460;7.090;2023-03-05T09:08:06;19.88;;;13.63;;
12359;SDS011;6244;51.460;7.090;2023-03-05T09:13:02;20.88;;;12.57;;
12359;SDS011;6244;51.460;7.090;2023-03-05T09:18:00;25.98;;;12.50;;
12359;SDS011;6244;51.460;7.090;2023-03-05T09:22:57;26.35;;;14.20;;
12359;SDS011;6244;51.460;7.090;2023-03-05T09:27:53;27.63;;;14.60;;
12359;SDS011;6244;51.460;7.090;2023-03-05T09:32:50;33.67;;;19.20;;
12359;SDS011;6244;51.460;7.090;2023-03-05T09:37:48;28.17;;;15.75;;
12359;SDS011;6244;51.460;7.090;2023-03-05T09:42:46;26.08;;;15.68;;
12359;SDS011;6244;51.460;7.090;2023-03-05T09:47:55;20.58;;;12.75;;
12359;SDS011;6244;51.460;7.090;2023-03-05T09:52:58;18.83;;;11.60;;
12359;SDS011;6244;51.460;7.090;2023-03-05T10:02:59;22.52;;;10.85;;
12359;SDS011;6244;51.460;7.090;2023-03-05T10:08:02;16.05;;;10.55;;
12359;SDS011;6244;51.460;7.090;2023-03-05T10:13:01;12.60;;;8.32;;
12359;SDS011;6244;51.460;7.090;2023-03-05T10:18:12;18.85;;;10.07;;
12359;SDS011;6244;51.460;7.090;2023-03-05T10:23:26;16.00;;;7.85;;
12359;SDS011;6244;51.460;7.090;2023-03-05T10:28:28;12.30;;;7.35;;
12359;SDS011;6244;51.460;7.090;2023-03-05T10:33:33;10.02;;;6.32;;
12359;SDS011;6244;51.460;7.090;2023-03-05T10:38:47;11.43;;;6.40;;
12359;SDS011;6244;51.460;7.090;2023-03-05T10:43:57;8.60;;;5.68;;
12359;SDS011;6244;51.460;7.090;2023-03-05T10:49:01;8.32;;;6.28;;
12359;SDS011;6244;51.460;7.090;2023-03-05T10:54:10;10.95;;;6.85;;
12359;SDS011;6244;51.460;7.090;2023-03-05T10:59:13;12.35;;;6.97;;
12359;SDS011;6244;51.460;7.090;2023-03-05T11:04:25;9.45;;;5.28;;
12359;SDS011;6244;51.460;7.090;2023-03-05T11:09:24;6.55;;;4.50;;
12359;SDS011;6244;51.460;7.090;2023-03-05T11:14:24;6.88;;;4.18;;
12359;SDS011;6244;51.460;7.090;2023-03-05T11:19:25;3.83;;;2.97;;
12359;SDS011;6244;51.460;7.090;2023-03-05T11:24:28;2.92;;;1.80;;
12359;SDS011;6244;51.460;7.090;2023-03-05T11:29:25;3.45;;;2.55;;
12359;SDS011;6244;51.460;7.090;2023-03-05T11:34:26;2.80;;;2.25;;
12359;SDS011;6244;51.460;7.090;2023-03-05T11:39:30;3.00;;;2.10;;
12359;SDS011;6244;51.460;7.090;2023-03-05T11:44:32;2.45;;;2.25;;
12359;SDS011;6244;51.460;7.090;2023-03-05T11:49:33;3.70;;;2.60;;
12359;SDS011;6244;51.460;7.090;2023-03-05T11:54:40;6.00;;;3.05;;
12359;SDS011;6244;51.460;7.090;2023-03-05T11:59:46;5.97;;;2.95;;
12359;SDS011;6244;51.460;7.090;2023-03-05T12:04:45;4.38;;;3.08;;
12359;SDS011;6244;51.460;7.090;2023-03-05T12:09:45;5.82;;;3.00;;
12359;SDS011;6244;51.460;7.090;2023-03-05T12:14:44;6.78;;;3.13;;
12359;SDS011;6244;51.460;7.090;2023-03-05T12:19:47;4.32;;;3.50;;
12359;SDS011;6244;51.460;7.090;2023-03-05T12:24:53;4.82;;;3.10;;
12359;SDS011;6244;51.460;7.090;2023-03-05T12:35:50;5.63;;;3.58;;
12359;SDS011;6244;51.460;7.090;2023-03-05T12:40:48;8.48;;;4.53;;
12359;SDS011;6244;51.460;7.090;2023-03-05T12:45:44;9.80;;;5.30;;
12359;SDS011;6244;51.460;7.090;2023-03-05T12:50:48;5.82;;;4.65;;
12359;SDS011;6244;51.460;7.090;2023-03-05T12:55:58;9.90;;;4.85;;
12359;SDS011;6244;51.460;7.090;2023-03-05T13:01:01;7.70;;;5.35;;
12359;SDS011;6244;51.460;7.090;2023-03-05T13:06:19;6.95;;;4.72;;
12359;SDS011;6244;51.460;7.090;2023-03-05T13:11:21;6.43;;;4.65;;
12359;SDS011;6244;51.460;7.090;2023-03-05T13:16:18;4.90;;;4.03;;
12359;SDS011;6244;51.460;7.090;2023-03-05T13:21:17;6.57;;;4.40;;
12359;SDS011;6244;51.460;7.090;2023-03-05T13:26:17;6.00;;;4.38;;
12359;SDS011;6244;51.460;7.090;2023-03-05T13:31:16;4.97;;;3.67;;
12359;SDS011;6244;51.460;7.090;2023-03-05T13:36:16;5.57;;;4.18;;
12359;SDS011;6244;51.460;7.090;2023-03-05T13:41:20;7.13;;;4.30;;
12359;SDS011;6244;51.460;7.090;2023-03-05T13:46:23;6.10;;;3.88;;
12359;SDS011;6244;51.460;7.090;2023-03-05T13:51:39;7.97;;;4.30;;
12359;SDS011;6244;51.460;7.090;2023-03-05T13:56:36;9.57;;;4.68;;
12359;SDS011;6244;51.460;7.090;2023-03-05T14:01:46;10.18;;;6.30;;
12359;SDS011;6244;51.460;7.090;2023-03-05T14:06:45;13.82;;;8.05;;
12359;SDS011;6244;51.460;7.090;2023-03-05T14:11:50;10.63;;;6.70;;
12359;SDS011;6244;51.460;7.090;2023-03-05T14:16:49;12.13;;;7.45;;
12359;SDS011;6244;51.460;7.090;2023-03-05T14:21:46;15.05;;;9.73;;
12359;SDS011;6244;51.460;7.090;2023-03-05T14:26:46;13.63;;;8.50;;
12359;SDS011;6244;51.460;7.090;2023-03-05T14:31:46;12.00;;;7.05;;
12359;SDS011;6244;51.460;7.090;2023-03-05T14:36:47;9.45;;;5.85;;
12359;SDS011;6244;51.460;7.090;2023-03-05T14:41:44;8.73;;;5.82;;
12359;SDS011;6244;51.460;7.090;2023-03-05T14:46:41;8.95;;;5.93;;
12359;SDS011;6244;51.460;7.090;2023-03-05T14:51:39;7.93;;;5.18;;
12359;SDS011;6244;51.460;7.090;2023-03-05T14:56:39;9.35;;;6.20;;
12359;SDS011;6244;51.460;7.090;2023-03-05T15:01:36;8.02;;;5.53;;
12359;SDS011;6244;51.460;7.090;2023-03-05T15:06:33;7.28;;;4.65;;
12359;SDS011;6244;51.460;7.090;2023-03-05T15:11:32;9.32;;;6.28;;
12359;SDS011;6244;51.460;7.090;2023-03-05T15:16:31;10.73;;;6.90;;
12359;SDS011;6244;51.460;7.090;2023-03-05T15:21:27;14.88;;;7.78;;
12359;SDS011;6244;51.460;7.090;2023-03-05T15:26:24;12.07;;;7.07;;
12359;SDS011;6244;51.460;7.090;2023-03-05T15:31:20;12.98;;;7.63;;
12359;SDS011;6244;51.460;7.090;2023-03-05T15:36:20;9.48;;;6.15;;
12359;SDS011;6244;51.460;7.090;2023-03-05T15:41:16;7.50;;;4.82;;
12359;SDS011;6244;51.460;7.090;2023-03-05T15:46:13;17.80;;;9.27;;
12359;SDS011;6244;51.460;7.090;2023-03-05T15:51:09;8.32;;;4.45;;
12359;SDS011;6244;51.460;7.090;2023-03-05T15:56:07;15.27;;;8.88;;
12359;SDS011;6244;51.460;7.090;2023-03-05T16:01:09;8.20;;;5.18;;
12359;SDS011;6244;51.460;7.090;2023-03-05T16:06:06;5.43;;;3.75;;
12359;SDS011;6244;51.460;7.090;2023-03-05T16:11:07;4.45;;;3.30;;
12359;SDS011;6244;51.460;7.090;2023-03-05T16:16:05;5.95;;;4.22;;
12359;SDS011;6244;51.460;7.090;2023-03-05T16:21:02;6.28;;;4.28;;
12359;SDS011;6244;51.460;7.090;2023-03-05T16:25:59;8.30;;;4.88;;
12359;SDS011;6244;51.460;7.090;2023-03-05T16:30:56;5.82;;;3.67;;
12359;SDS011;6244;51.460;7.090;2023-03-05T16:36:03;12.00;;;5.25;;
12359;SDS011;6244;51.460;7.090;2023-03-05T16:41:14;6.60;;;4.80;;
12359;SDS011;6244;51.460;7.090;2023-03-05T16:46:13;9.90;;;5.93;;
12359;SDS011;6244;51.460;7.090;2023-03-05T16:51:10;8.52;;;5.55;;
12359;SDS011;6244;51.460;7.090;2023-03-05T16:56:07;9.00;;;5.15;;
12359;SDS011;6244;51.460;7.090;2023-03-05T17:01:07;6.22;;;4.80;;
12359;SDS011;6244;51.460;7.090;2023-03-05T17:06:08;8.77;;;5.63;;
12359;SDS011;6244;51.460;7.090;2023-03-05T17:11:06;8.73;;;4.72;;
12359;SDS011;6244;51.460;7.090;2023-03-05T17:16:03;7.68;;;4.70;;
12359;SDS011;6244;51.460;7.090;2023-03-05T17:21:01;8.63;;;5.18;;
12359;SDS011;6244;51.460;7.090;2023-03-05T17:26:00;9.50;;;5.60;;
12359;SDS011;6244;51.460;7.090;2023-03-05T17:30:59;9.65;;;6.30;;
12359;SDS011;6244;51.460;7.090;2023-03-05T17:35:56;7.53;;;5.78;;
12359;SDS011;6244;51.460;7.090;2023-03-05T17:40:52;7.00;;;4.35;;
12359;SDS011;6244;51.460;7.090;2023-03-05T17:45:50;10.15;;;5.93;;
12359;SDS011;6244;51.460;7.090;2023-03-05T17:50:47;8.38;;;5.60;;
12359;SDS011;6244;51.460;7.090;2023-03-05T17:55:43;9.45;;;4.68;;
12359;SDS011;6244;51.460;7.090;2023-03-05T18:00:40;10.70;;;6.45;;
12359;SDS011;6244;51.460;7.090;2023-03-05T18:05:38;11.40;;;7.35;;
12359;SDS011;6244;51.460;7.090;2023-03-05T18:10:35;13.13;;;6.95;;
12359;SDS011;6244;51.460;7.090;2023-03-05T18:15:31;11.05;;;7.50;;
12359;SDS011;6244;51.460;7.090;2023-03-05T18:20:29;12.60;;;7.35;;
12359;SDS011;6244;51.460;7.090;2023-03-05T18:25:28;16.02;;;11.40;;
12359;SDS011;6244;51.460;7.090;2023-03-05T18:30:26;16.90;;;10.80;;
12359;SDS011;6244;51.460;7.090;2023-03-05T18:35:23;10.63;;;7.70;;
12359;SDS011;6244;51.460;7.090;2023-03-05T18:40:20;17.30;;;8.60;;
12359;SDS011;6244;51.460;7.090;2023-03-05T18:45:20;12.23;;;7.75;;
12359;SDS011;6244;51.460;7.090;2023-03-05T18:50:18;12.77;;;8.65;;
12359;SDS011;6244;51.460;7.090;2023-03-05T18:55:16;12.43;;;7.95;;
12359;SDS011;6244;51.460;7.090;2023-03-05T19:00:15;16.08;;;9.23;;
12359;SDS011;6244;51.460;7.090;2023-03-05T19:05:14;13.88;;;8.38;;
12359;SDS011;6244;51.460;7.090;2023-03-05T19:10:13;11.65;;;8.18;;
12359;SDS011;6244;51.460;7.090;2023-03-05T19:15:11;15.18;;;8.73;;
12359;SDS011;6244;51.460;7.090;2023-03-05T19:20:09;14.65;;;8.73;;
12359;SDS011;6244;51.460;7.090;2023-03-05T19:25:10;17.35;;;10.05;;
12359;SDS011;6244;51.460;7.090;2023-03-05T19:30:07;13.27;;;8.73;;
12359;SDS011;6244;51.460;7.090;2023-03-05T19:35:05;13.50;;;9.15;;
12359;SDS011;6244;51.460;7.090;2023-03-05T19:40:03;14.40;;;9.15;;
12359;SDS011;6244;51.460;7.090;2023-03-05T19:45:01;9.13;;;6.07;;
12359;SDS011;6244;51.460;7.090;2023-03-05T19:49:58;12.32;;;8.75;;
12359;SDS011;6244;51.460;7.090;2023-03-05T19:54:54;14.23;;;8.80;;
12359;SDS011;6244;51.460;7.090;2023-03-05T19:59:51;16.00;;;9.68;;
12359;SDS011;6244;51.460;7.090;2023-03-05T20:04:49;15.80;;;9.35;;
12359;SDS011;6244;51.460;7.090;2023-03-05T20:09:46;15.25;;;10.18;;
12359;SDS011;6244;51.460;7.090;2023-03-05T20:14:44;14.18;;;9.30;;
12359;SDS011;6244;51.460;7.090;2023-03-05T20:19:40;14.07;;;8.80;;
12359;SDS011;6244;51.460;7.090;2023-03-05T20:24:38;14.60;;;9.05;;
12359;SDS011;6244;51.460;7.090;2023-03-05T20:29:35;14.90;;;9.48;;
12359;SDS011;6244;51.460;7.090;2023-03-05T20:34:31;15.93;;;10.65;;
12359;SDS011;6244;51.460;7.090;2023-03-05T20:39:28;13.85;;;8.48;;
12359;SDS011;6244;51.460;7.090;2023-03-05T20:44:26;17.13;;;10.05;;
12359;SDS011;6244;51.460;7.090;2023-03-05T20:49:22;17.63;;;9.70;;
12359;SDS011;6244;51.460;7.090;2023-03-05T20:54:19;15.43;;;9.40;;
12359;SDS011;6244;51.460;7.090;2023-03-05T20:59:15;14.90;;;8.68;;
12359;SDS011;6244;51.460;7.090;2023-03-05T21:04:13;16.60;;;10.13;;
12359;SDS011;6244;51.460;7.090;2023-03-05T21:09:10;12.88;;;7.80;;
12359;SDS011;6244;51.460;7.090;2023-03-05T21:14:07;20.85;;;9.43;;
12359;SDS011;6244;51.460;7.090;2023-03-05T21:19:03;16.30;;;9.35;;
12359;SDS011;6244;51.460;7.090;2023-03-05T21:24:01;16.90;;;9.35;;
12359;SDS011;6244;51.460;7.090;2023-03-05T21:28:57;16.58;;;9.43;;
12359;SDS011;6244;51.460;7.090;2023-03-05T21:33:54;16.10;;;9.93;;
12359;SDS011;6244;51.460;7.090;2023-03-05T21:38:50;16.05;;;10.20;;
12359;SDS011;6244;51.460;7.090;2023-03-05T21:43:48;12.07;;;7.85;;
12359;SDS011;6244;51.460;7.090;2023-03-05T21:48:45;14.63;;;9.07;;
12359;SDS011;6244;51.460;7.090;2023-03-05T21:53:41;18.50;;;11.23;;
12359;SDS011;6244;51.460;7.090;2023-03-05T21:58:38;14.68;;;10.20;;
12359;SDS011;6244;51.460;7.090;2023-03-05T22:03:36;20.30;;;10.85;;
12359;SDS011;6244;51.460;7.090;2023-03-05T22:08:33;20.98;;;11.57;;
12359;SDS011;6244;51.460;7.090;2023-03-05T22:13:29;20.67;;;10.77;;
12359;SDS011;6244;51.460;7.090;2023-03-05T22:18:26;19.15;;;12.00;;
12359;SDS011;6244;51.460;7.090;2023-03-05T22:23:27;20.25;;;12.30;;
12359;SDS011;6244;51.460;7.090;2023-03-05T22:28:25;19.13;;;12.00;;
12359;SDS011;6244;51.460;7.090;2023-03-05T22:33:23;18.80;;;10.65;;
12359;SDS011;6244;51.460;7.090;2023-03-05T22:38:19;22.00;;;14.40;;
12359;SDS011;6244;51.460;7.090;2023-03-05T22:43:17;24.30;;;14.23;;
12359;SDS011;6244;51.460;7.090;2023-03-05T22:48:14;23.80;;;13.30;;
12359;SDS011;6244;51.460;7.090;2023-03-05T22:53:11;24.80;;;13.15;;
12359;SDS011;6244;51.460;7.090;2023-03-05T22:58:07;18.58;;;11.95;;
12359;SDS011;6244;51.460;7.090;2023-03-05T23:03:05;17.20;;;9.52;;
12359;SDS011;6244;51.460;7.090;2023-03-05T23:08:02;15.32;;;8.80;;
12359;SDS011;6244;51.460;7.090;2023-03-05T23:12:59;17.60;;;10.60;;
12359;SDS011;6244;51.460;7.090;2023-03-05T23:17:56;19.33;;;9.88;;
12359;SDS011;6244;51.460;7.090;2023-03-05T23:22:54;15.23;;;9.38;;
12359;SDS011;6244;51.460;7.090;2023-03-05T23:27:51;14.25;;;9.75;;
12359;SDS011;6244;51.460;7.090;2023-03-05T23:32:49;13.70;;;9.23;;
12359;SDS011;6244;51.460;7.090;2023-03-05T23:37:47;14.98;;;10.07;;
12359;SDS011;6244;51.460;7.090;2023-03-05T23:42:45;12.27;;;8.60;;
12359;SDS011;6244;51.460;7.090;2023-03-05T23:47:42;16.42;;;10.00;;
12359;SDS011;6244;51.460;7.090;2023-03-05T23:52:38;15.73;;;10.50;;
12359;SDS011;6244;51.460;7.090;2023-03-05T23:57:35;19.85;;;11.68;;
